createdAt,value
2018-08-04T00:00:27.458Z,861.16
2018-08-04T00:01:28.935Z,861.22
2018-08-04T00:02:27.214Z,861.20
2018-08-04T00:03:27.095Z,861.22
2018-08-04T00:04:26.975Z,861.20
2018-08-04T00:05:26.853Z,861.24
2018-08-04T00:06:26.735Z,861.24
2018-08-04T00:07:26.615Z,861.25
2018-08-04T00:08:26.492Z,861.25
2018-08-04T00:09:26.373Z,861.28
2018-08-04T00:10:26.255Z,861.26
2018-08-04T00:11:26.141Z,861.27
2018-08-04T00:12:26.014Z,861.27
2018-08-04T00:13:25.891Z,861.25
2018-08-04T00:14:25.772Z,861.24
2018-08-04T00:15:25.651Z,861.24
2018-08-04T00:16:25.532Z,861.21
2018-08-04T00:17:25.409Z,861.20
2018-08-04T00:18:25.290Z,861.21
2018-08-04T00:19:25.171Z,861.19
2018-08-04T00:20:25.053Z,861.20
2018-08-04T00:21:24.931Z,861.17
2018-08-04T00:22:24.811Z,861.19
2018-08-04T00:23:24.695Z,861.20
2018-08-04T00:24:24.572Z,861.19
2018-08-04T00:25:24.450Z,861.18
2018-08-04T00:26:24.336Z,861.22
2018-08-04T00:27:24.217Z,861.20
2018-08-04T00:28:24.093Z,861.18
2018-08-04T00:29:23.974Z,861.20
2018-08-04T00:30:23.859Z,861.19
2018-08-04T00:31:23.732Z,861.17
2018-08-04T00:32:23.615Z,861.20
2018-08-04T00:33:23.494Z,861.18
2018-08-04T00:34:23.374Z,861.17
2018-08-04T00:35:23.255Z,861.17
2018-08-04T00:36:23.135Z,861.19
2018-08-04T00:37:23.013Z,861.15
2018-08-04T00:38:22.899Z,861.19
2018-08-04T00:39:23.496Z,861.19
2018-08-04T00:40:22.657Z,861.13
2018-08-04T00:41:22.533Z,861.12
2018-08-04T00:42:22.415Z,861.10
2018-08-04T00:43:22.299Z,861.10
2018-08-04T00:44:22.180Z,861.08
2018-08-04T00:45:22.054Z,861.07
2018-08-04T00:46:21.935Z,861.06
2018-08-04T00:47:21.817Z,861.05
2018-08-04T00:48:23.448Z,861.05
2018-08-04T00:49:21.579Z,861.04
2018-08-04T00:50:21.459Z,861.08
2018-08-04T00:51:21.337Z,861.12
2018-08-04T00:52:21.240Z,861.06
2018-08-04T00:53:21.096Z,861.09
2018-08-04T00:54:20.978Z,861.09
2018-08-04T00:55:20.856Z,861.07
2018-08-04T00:56:20.737Z,861.07
2018-08-04T00:57:20.616Z,861.09
2018-08-04T00:58:20.499Z,861.05
2018-08-04T00:59:20.381Z,861.02
2018-08-04T01:00:20.256Z,861.00
2018-08-04T01:01:21.132Z,861.04
2018-08-04T01:02:20.018Z,860.99
2018-08-04T01:03:19.900Z,860.98
2018-08-04T01:04:19.782Z,860.99
2018-08-04T01:05:21.453Z,860.96
2018-08-04T01:06:19.540Z,860.95
2018-08-04T01:07:19.418Z,860.94
2018-08-04T01:08:19.497Z,860.98
2018-08-04T01:09:19.178Z,860.96
2018-08-04T01:10:19.062Z,860.99
2018-08-04T01:11:18.939Z,861.01
2018-08-04T01:12:18.821Z,860.97
2018-08-04T01:13:18.698Z,860.95
2018-08-04T01:14:18.578Z,861.00
2018-08-04T01:15:18.457Z,860.98
2018-08-04T01:16:18.339Z,861.00
2018-08-04T01:17:18.220Z,860.97
2018-08-04T01:18:18.099Z,860.98
2018-08-04T01:19:17.979Z,861.00
2018-08-04T01:20:17.861Z,861.00
2018-08-04T01:21:17.746Z,860.99
2018-08-04T01:22:17.618Z,861.01
2018-08-04T01:23:19.458Z,861.01
2018-08-04T01:24:17.376Z,860.98
2018-08-04T01:25:17.257Z,861.01
2018-08-04T01:26:17.138Z,860.99
2018-08-04T01:27:18.960Z,860.97
2018-08-04T01:28:16.898Z,860.96
2018-08-04T01:29:16.778Z,860.95
2018-08-04T01:30:16.657Z,860.95
2018-08-04T01:31:16.535Z,860.96
2018-08-04T01:32:16.412Z,860.97
2018-08-04T01:33:16.291Z,860.98
2018-08-04T01:34:16.171Z,860.99
2018-08-04T01:35:16.053Z,861.01
2018-08-04T01:36:15.932Z,860.97
2018-08-04T01:37:15.809Z,860.99
2018-08-04T01:38:15.691Z,860.98
2018-08-04T01:39:15.571Z,860.98
2018-08-04T01:40:15.447Z,860.96
2018-08-04T01:41:15.328Z,860.95
2018-08-04T01:42:15.207Z,860.97
2018-08-04T01:43:15.088Z,860.97
2018-08-04T01:44:14.966Z,860.98
2018-08-04T01:45:14.846Z,860.98
2018-08-04T01:46:14.725Z,861.01
2018-08-04T01:47:14.605Z,860.99
2018-08-04T01:48:14.490Z,861.00
2018-08-04T01:49:14.364Z,861.02
2018-08-04T01:50:14.244Z,861.00
2018-08-04T01:51:14.123Z,860.96
2018-08-04T01:52:14.002Z,861.02
2018-08-04T01:53:13.883Z,861.01
2018-08-04T01:54:13.762Z,861.00
2018-08-04T01:55:13.643Z,861.01
2018-08-04T01:56:13.524Z,861.04
2018-08-04T01:57:13.403Z,861.02
2018-08-04T01:58:13.279Z,861.01
2018-08-04T01:59:13.177Z,861.04
2018-08-04T02:00:13.040Z,861.04
2018-08-04T02:01:12.917Z,861.02
2018-08-04T02:02:12.798Z,861.02
2018-08-04T02:03:12.679Z,861.01
2018-08-04T02:04:12.562Z,860.95
2018-08-04T02:05:12.439Z,860.99
2018-08-04T02:06:12.320Z,860.97
2018-08-04T02:07:12.241Z,860.97
2018-08-04T02:08:12.079Z,860.98
2018-08-04T02:09:11.954Z,860.97
2018-08-04T02:10:11.835Z,860.98
2018-08-04T02:11:11.714Z,860.96
2018-08-04T02:12:11.597Z,860.97
2018-08-04T02:13:11.473Z,860.98
2018-08-04T02:14:11.352Z,860.96
2018-08-04T02:15:11.236Z,860.93
2018-08-04T02:16:11.112Z,860.89
2018-08-04T02:17:10.994Z,860.91
2018-08-04T02:18:10.874Z,860.87
2018-08-04T02:19:10.751Z,860.85
2018-08-04T02:20:10.630Z,860.85
2018-08-04T02:21:10.509Z,860.86
2018-08-04T02:22:10.387Z,860.88
2018-08-04T02:23:10.267Z,860.88
2018-08-04T02:24:10.148Z,860.89
2018-08-04T02:25:10.027Z,860.85
2018-08-04T02:26:09.905Z,860.89
2018-08-04T02:27:09.785Z,860.89
2018-08-04T02:28:09.665Z,860.91
2018-08-04T02:29:09.546Z,860.88
2018-08-04T02:30:09.424Z,860.90
2018-08-04T02:31:09.308Z,860.87
2018-08-04T02:32:10.980Z,860.91
2018-08-04T02:33:10.977Z,860.86
2018-08-04T02:34:08.944Z,860.86
2018-08-04T02:35:08.824Z,860.84
2018-08-04T02:36:09.526Z,860.84
2018-08-04T02:37:08.581Z,860.86
2018-08-04T02:38:08.460Z,860.82
2018-08-04T02:39:08.340Z,860.83
2018-08-04T02:40:08.219Z,860.83
2018-08-04T02:41:08.100Z,860.82
2018-08-04T02:42:07.980Z,860.83
2018-08-04T02:43:07.860Z,860.85
2018-08-04T02:44:07.739Z,860.85
2018-08-04T02:45:07.615Z,860.86
2018-08-04T02:46:07.494Z,860.86
2018-08-04T02:47:07.378Z,860.86
2018-08-04T02:48:07.257Z,860.88
2018-08-04T02:49:07.133Z,860.87
2018-08-04T02:50:07.013Z,860.88
2018-08-04T02:51:06.891Z,860.90
2018-08-04T02:52:06.770Z,860.92
2018-08-04T02:53:06.650Z,860.89
2018-08-04T02:54:06.539Z,860.91
2018-08-04T02:55:06.411Z,860.93
2018-08-04T02:56:07.983Z,860.92
2018-08-04T02:57:06.167Z,860.92
2018-08-04T02:58:06.054Z,860.94
2018-08-04T02:59:06.006Z,860.92
2018-08-04T03:00:05.807Z,860.95
2018-08-04T03:01:05.688Z,860.91
2018-08-04T03:02:05.566Z,860.95
2018-08-04T03:03:05.448Z,860.93
2018-08-04T03:04:05.326Z,860.96
2018-08-04T03:05:05.532Z,860.93
2018-08-04T03:06:05.083Z,860.92
2018-08-04T03:07:06.485Z,860.87
2018-08-04T03:08:06.487Z,860.86
2018-08-04T03:09:04.724Z,860.85
2018-08-04T03:10:04.608Z,860.88
2018-08-04T03:11:04.486Z,860.83
2018-08-04T03:12:04.358Z,860.80
2018-08-04T03:13:04.248Z,860.79
2018-08-04T03:14:04.117Z,860.79
2018-08-04T03:15:03.997Z,860.79
2018-08-04T03:16:03.880Z,860.77
2018-08-04T03:17:03.756Z,860.78
2018-08-04T03:18:03.639Z,860.78
2018-08-04T03:19:03.514Z,860.75
2018-08-04T03:20:03.395Z,860.78
2018-08-04T03:21:03.274Z,860.74
2018-08-04T03:22:03.155Z,860.72
2018-08-04T03:23:03.032Z,860.75
2018-08-04T03:24:02.912Z,860.74
2018-08-04T03:25:02.792Z,860.74
2018-08-04T03:26:02.670Z,860.76
2018-08-04T03:27:02.549Z,860.74
2018-08-04T03:28:02.431Z,860.71
2018-08-04T03:29:02.310Z,860.77
2018-08-04T03:30:02.199Z,860.74
2018-08-04T03:31:02.073Z,860.73
2018-08-04T03:32:01.965Z,860.79
2018-08-04T03:33:01.824Z,860.77
2018-08-04T03:34:01.707Z,860.76
2018-08-04T03:35:01.586Z,860.77
2018-08-04T03:36:01.465Z,860.77
2018-08-04T03:37:01.344Z,860.75
2018-08-04T03:38:01.219Z,860.75
2018-08-04T03:39:01.101Z,860.75
2018-08-04T03:40:00.979Z,860.72
2018-08-04T03:41:00.857Z,860.73
2018-08-04T03:42:00.735Z,860.71
2018-08-04T03:43:00.616Z,860.71
2018-08-04T03:44:00.497Z,860.69
2018-08-04T03:45:00.372Z,860.72
2018-08-04T03:46:00.253Z,860.67
2018-08-04T03:47:00.134Z,860.69
2018-08-04T03:48:00.015Z,860.68
2018-08-04T03:48:59.893Z,860.68
2018-08-04T03:49:59.769Z,860.66
2018-08-04T03:50:59.653Z,860.64
2018-08-04T03:51:59.529Z,860.64
2018-08-04T03:53:01.000Z,860.60
2018-08-04T03:53:59.288Z,860.62
2018-08-04T03:54:59.172Z,860.62
2018-08-04T03:55:59.050Z,860.60
2018-08-04T03:56:58.927Z,860.61
2018-08-04T03:57:58.804Z,860.60
2018-08-04T03:58:58.689Z,860.57
2018-08-04T03:59:58.565Z,860.61
2018-08-04T04:00:58.441Z,860.60
2018-08-04T04:01:58.322Z,860.58
2018-08-04T04:02:58.210Z,860.56
2018-08-04T04:03:58.082Z,860.54
2018-08-04T04:04:57.963Z,860.57
2018-08-04T04:05:59.501Z,860.60
2018-08-04T04:06:57.727Z,860.60
2018-08-04T04:07:57.601Z,860.58
2018-08-04T04:08:57.479Z,860.60
2018-08-04T04:09:57.359Z,860.58
2018-08-04T04:10:57.242Z,860.51
2018-08-04T04:11:57.115Z,860.57
2018-08-04T04:12:56.998Z,860.58
2018-08-04T04:13:56.875Z,860.59
2018-08-04T04:14:56.756Z,860.57
2018-08-04T04:15:56.634Z,860.58
2018-08-04T04:16:56.513Z,860.60
2018-08-04T04:17:56.394Z,860.61
2018-08-04T04:18:56.274Z,860.62
2018-08-04T04:19:56.150Z,860.65
2018-08-04T04:20:56.030Z,860.63
2018-08-04T04:21:55.909Z,860.64
2018-08-04T04:22:55.790Z,860.64
2018-08-04T04:23:55.667Z,860.64
2018-08-04T04:24:55.548Z,860.65
2018-08-04T04:25:55.428Z,860.64
2018-08-04T04:26:55.306Z,860.66
2018-08-04T04:27:55.184Z,860.66
2018-08-04T04:28:55.063Z,860.66
2018-08-04T04:29:54.944Z,860.64
2018-08-04T04:30:54.821Z,860.63
2018-08-04T04:31:54.702Z,860.64
2018-08-04T04:32:54.580Z,860.65
2018-08-04T04:33:54.460Z,860.61
2018-08-04T04:34:54.341Z,860.60
2018-08-04T04:35:54.219Z,860.60
2018-08-04T04:36:54.116Z,860.64
2018-08-04T04:37:55.514Z,860.62
2018-08-04T04:38:53.858Z,860.62
2018-08-04T04:39:53.737Z,860.61
2018-08-04T04:40:53.614Z,860.63
2018-08-04T04:41:53.494Z,860.60
2018-08-04T04:42:53.372Z,860.60
2018-08-04T04:43:53.252Z,860.62
2018-08-04T04:44:53.133Z,860.63
2018-08-04T04:45:53.013Z,860.61
2018-08-04T04:46:52.889Z,860.66
2018-08-04T04:47:52.768Z,860.67
2018-08-04T04:48:52.652Z,860.64
2018-08-04T04:49:52.526Z,860.66
2018-08-04T04:50:52.406Z,860.63
2018-08-04T04:51:52.286Z,860.65
2018-08-04T04:52:52.166Z,860.65
2018-08-04T04:53:52.045Z,860.65
2018-08-04T04:54:51.923Z,860.66
2018-08-04T04:55:51.803Z,860.65
2018-08-04T04:56:51.684Z,860.65
2018-08-04T04:57:51.561Z,860.66
2018-08-04T04:58:51.442Z,860.70
2018-08-04T04:59:51.322Z,860.72
2018-08-04T05:00:51.204Z,860.72
2018-08-04T05:01:51.615Z,860.75
2018-08-04T05:02:50.962Z,860.75
2018-08-04T05:03:50.848Z,860.76
2018-08-04T05:04:50.718Z,860.77
2018-08-04T05:05:50.601Z,860.79
2018-08-04T05:06:50.480Z,860.81
2018-08-04T05:07:50.359Z,860.82
2018-08-04T05:08:50.297Z,860.81
2018-08-04T05:09:50.137Z,860.81
2018-08-04T05:10:49.998Z,860.88
2018-08-04T05:11:49.877Z,860.86
2018-08-04T05:12:49.757Z,860.84
2018-08-04T05:13:49.636Z,860.85
2018-08-04T05:14:49.517Z,860.81
2018-08-04T05:15:49.399Z,860.82
2018-08-04T05:16:49.275Z,860.84
2018-08-04T05:17:49.158Z,860.85
2018-08-04T05:18:49.036Z,860.88
2018-08-04T05:19:48.915Z,860.85
2018-08-04T05:20:48.795Z,860.90
2018-08-04T05:21:48.676Z,860.88
2018-08-04T05:22:48.552Z,860.94
2018-08-04T05:23:48.435Z,860.93
2018-08-04T05:24:48.316Z,860.95
2018-08-04T05:25:48.194Z,860.96
2018-08-04T05:26:48.076Z,860.92
2018-08-04T05:27:47.957Z,860.92
2018-08-04T05:28:47.837Z,860.97
2018-08-04T05:29:47.713Z,860.92
2018-08-04T05:30:47.614Z,860.94
2018-08-04T05:31:47.478Z,860.93
2018-08-04T05:32:47.355Z,860.94
2018-08-04T05:33:47.237Z,860.94
2018-08-04T05:34:47.117Z,860.94
2018-08-04T05:35:46.997Z,860.94
2018-08-04T05:36:46.877Z,860.97
2018-08-04T05:37:46.760Z,860.96
2018-08-04T05:38:46.637Z,860.98
2018-08-04T05:39:46.518Z,860.99
2018-08-04T05:40:46.397Z,860.97
2018-08-04T05:41:46.279Z,860.97
2018-08-04T05:42:46.161Z,861.00
2018-08-04T05:43:46.040Z,861.03
2018-08-04T05:44:45.925Z,861.02
2018-08-04T05:45:45.800Z,861.02
2018-08-04T05:46:45.680Z,861.05
2018-08-04T05:47:45.565Z,861.04
2018-08-04T05:48:45.445Z,861.06
2018-08-04T05:49:45.327Z,861.07
2018-08-04T05:50:45.205Z,861.04
2018-08-04T05:51:45.086Z,861.03
2018-08-04T05:52:46.534Z,861.05
2018-08-04T05:53:46.534Z,861.03
2018-08-04T05:54:44.725Z,861.04
2018-08-04T05:55:46.533Z,861.08
2018-08-04T05:56:44.487Z,861.05
2018-08-04T05:57:46.034Z,861.05
2018-08-04T05:58:44.248Z,861.03
2018-08-04T05:59:46.034Z,861.04
2018-08-04T06:00:44.013Z,861.06
2018-08-04T06:01:43.895Z,861.07
2018-08-04T06:02:43.773Z,861.06
2018-08-04T06:03:43.653Z,861.03
2018-08-04T06:04:43.532Z,861.07
2018-08-04T06:05:43.414Z,861.07
2018-08-04T06:06:43.294Z,861.06
2018-08-04T06:07:43.174Z,861.06
2018-08-04T06:08:43.055Z,861.05
2018-08-04T06:09:42.937Z,861.09
2018-08-04T06:10:42.815Z,861.09
2018-08-04T06:11:42.697Z,861.04
2018-08-04T06:12:42.577Z,861.06
2018-08-04T06:13:42.458Z,861.04
2018-08-04T06:14:42.339Z,861.05
2018-08-04T06:15:42.218Z,861.04
2018-08-04T06:16:42.100Z,861.06
2018-08-04T06:17:41.981Z,861.06
2018-08-04T06:18:41.864Z,861.04
2018-08-04T06:19:41.742Z,861.06
2018-08-04T06:20:41.623Z,861.05
2018-08-04T06:21:41.509Z,861.05
2018-08-04T06:22:41.384Z,861.00
2018-08-04T06:23:43.040Z,861.02
2018-08-04T06:24:41.143Z,861.00
2018-08-04T06:25:41.024Z,861.00
2018-08-04T06:26:40.906Z,860.97
2018-08-04T06:27:40.787Z,860.96
2018-08-04T06:28:40.675Z,860.97
2018-08-04T06:29:40.557Z,860.95
2018-08-04T06:30:40.465Z,860.92
2018-08-04T06:31:40.313Z,860.92
2018-08-04T06:32:40.194Z,860.89
2018-08-04T06:33:40.076Z,860.88
2018-08-04T06:34:39.955Z,860.85
2018-08-04T06:35:39.842Z,860.88
2018-08-04T06:36:39.716Z,860.85
2018-08-04T06:37:39.596Z,860.89
2018-08-04T06:38:39.481Z,860.88
2018-08-04T06:39:39.359Z,860.89
2018-08-04T06:40:39.245Z,860.85
2018-08-04T06:41:39.146Z,860.87
2018-08-04T06:42:39.006Z,860.86
2018-08-04T06:43:38.885Z,860.87
2018-08-04T06:44:38.766Z,860.86
2018-08-04T06:45:38.647Z,860.86
2018-08-04T06:46:38.529Z,860.89
2018-08-04T06:47:38.411Z,860.90
2018-08-04T06:48:38.292Z,860.90
2018-08-04T06:49:40.051Z,860.90
2018-08-04T06:50:38.052Z,860.92
2018-08-04T06:51:37.934Z,860.93
2018-08-04T06:52:37.813Z,860.90
2018-08-04T06:53:37.695Z,860.92
2018-08-04T06:54:37.578Z,860.92
2018-08-04T06:55:37.458Z,860.96
2018-08-04T06:56:37.340Z,860.93
2018-08-04T06:57:37.219Z,860.93
2018-08-04T06:58:37.623Z,860.90
2018-08-04T06:59:36.990Z,860.88
2018-08-04T07:00:36.863Z,860.91
2018-08-04T07:01:36.745Z,860.89
2018-08-04T07:02:36.628Z,860.89
2018-08-04T07:03:36.509Z,860.91
2018-08-04T07:04:36.388Z,860.88
2018-08-04T07:05:36.274Z,860.88
2018-08-04T07:06:37.144Z,860.88
2018-08-04T07:07:36.034Z,860.86
2018-08-04T07:08:35.917Z,860.88
2018-08-04T07:09:35.798Z,860.88
2018-08-04T07:10:35.679Z,860.87
2018-08-04T07:11:35.562Z,860.88
2018-08-04T07:12:35.445Z,860.88
2018-08-04T07:13:35.324Z,860.88
2018-08-04T07:14:35.211Z,860.79
2018-08-04T07:15:35.088Z,860.81
2018-08-04T07:16:34.970Z,860.85
2018-08-04T07:17:34.857Z,860.82
2018-08-04T07:18:34.737Z,860.79
2018-08-04T07:19:36.560Z,860.81
2018-08-04T07:20:34.496Z,860.79
2018-08-04T07:21:34.385Z,860.78
2018-08-04T07:22:34.263Z,860.80
2018-08-04T07:23:34.147Z,860.78
2018-08-04T07:24:34.026Z,860.77
2018-08-04T07:25:33.913Z,860.83
2018-08-04T07:26:33.791Z,860.82
2018-08-04T07:27:33.675Z,860.78
2018-08-04T07:28:33.560Z,860.75
2018-08-04T07:29:33.439Z,860.77
2018-08-04T07:30:33.321Z,860.80
2018-08-04T07:31:33.212Z,860.78
2018-08-04T07:32:33.087Z,860.78
2018-08-04T07:33:32.972Z,860.76
2018-08-04T07:34:32.853Z,860.76
2018-08-04T07:35:32.757Z,860.71
2018-08-04T07:36:32.618Z,860.75
2018-08-04T07:37:32.523Z,860.73
2018-08-04T07:38:32.382Z,860.72
2018-08-04T07:39:32.266Z,860.72
2018-08-04T07:40:32.212Z,860.72
2018-08-04T07:41:32.033Z,860.72
2018-08-04T07:42:31.918Z,860.70
2018-08-04T07:43:31.798Z,860.70
2018-08-04T07:44:31.684Z,860.70
2018-08-04T07:45:31.567Z,860.68
2018-08-04T07:46:31.445Z,860.71
2018-08-04T07:47:31.363Z,860.66
2018-08-04T07:48:31.210Z,860.67
2018-08-04T07:49:31.095Z,860.65
2018-08-04T07:50:31.010Z,860.64
2018-08-04T07:51:30.864Z,860.66
2018-08-04T07:52:30.747Z,860.65
2018-08-04T07:53:30.629Z,860.69
2018-08-04T07:54:32.070Z,860.67
2018-08-04T07:55:30.393Z,860.68
2018-08-04T07:56:30.281Z,860.68
2018-08-04T07:57:30.162Z,860.67
2018-08-04T07:58:30.046Z,860.67
2018-08-04T07:59:29.966Z,860.64
2018-08-04T08:00:29.813Z,860.67
2018-08-04T08:01:29.692Z,860.67
2018-08-04T08:02:29.587Z,860.67
2018-08-04T08:03:29.461Z,860.69
2018-08-04T08:04:29.345Z,860.67
2018-08-04T08:05:29.228Z,860.69
2018-08-04T08:06:29.113Z,860.69
2018-08-04T08:07:28.994Z,860.63
2018-08-04T08:08:28.876Z,860.67
2018-08-04T08:09:28.778Z,860.64
2018-08-04T08:10:28.734Z,860.68
2018-08-04T08:11:28.534Z,860.67
2018-08-04T08:12:28.412Z,860.69
2018-08-04T08:13:28.295Z,860.67
2018-08-04T08:14:28.180Z,860.68
2018-08-04T08:15:28.063Z,860.71
2018-08-04T08:16:27.946Z,860.68
2018-08-04T08:17:27.832Z,860.71
2018-08-04T08:18:27.715Z,860.65
2018-08-04T08:19:27.630Z,860.69
2018-08-04T08:20:27.482Z,860.70
2018-08-04T08:21:27.366Z,860.71
2018-08-04T08:22:27.253Z,860.71
2018-08-04T08:23:27.136Z,860.64
2018-08-04T08:24:27.023Z,860.64
2018-08-04T08:25:26.905Z,860.67
2018-08-04T08:26:27.635Z,860.64
2018-08-04T08:27:26.679Z,860.69
2018-08-04T08:28:26.558Z,860.66
2018-08-04T08:29:26.445Z,860.65
2018-08-04T08:30:26.329Z,860.65
2018-08-04T08:31:26.282Z,860.68
2018-08-04T08:32:26.101Z,860.70
2018-08-04T08:33:25.983Z,860.68
2018-08-04T08:34:25.870Z,860.68
2018-08-04T08:35:25.754Z,860.68
2018-08-04T08:36:25.639Z,860.65
2018-08-04T08:37:25.528Z,860.64
2018-08-04T08:38:25.410Z,860.66
2018-08-04T08:39:25.300Z,860.65
2018-08-04T08:40:25.189Z,860.66
2018-08-04T08:41:25.065Z,860.61
2018-08-04T08:42:24.951Z,860.61
2018-08-04T08:43:24.836Z,860.64
2018-08-04T08:44:24.726Z,860.67
2018-08-04T08:45:24.609Z,860.68
2018-08-04T08:46:24.494Z,860.62
2018-08-04T08:47:24.379Z,860.61
2018-08-04T08:48:24.264Z,860.64
2018-08-04T08:49:24.151Z,860.61
2018-08-04T08:50:24.034Z,860.62
2018-08-04T08:51:23.924Z,860.60
2018-08-04T08:52:23.810Z,860.62
2018-08-04T08:53:23.778Z,860.56
2018-08-04T08:54:23.572Z,860.58
2018-08-04T08:55:23.637Z,860.56
2018-08-04T08:56:23.344Z,860.53
2018-08-04T08:57:23.229Z,860.57
2018-08-04T08:58:23.115Z,860.55
2018-08-04T08:59:23.004Z,860.56
2018-08-04T09:00:22.888Z,860.55
2018-08-04T09:01:22.835Z,860.53
2018-08-04T09:02:22.657Z,860.51
2018-08-04T09:03:22.545Z,860.49
2018-08-04T09:04:22.430Z,860.48
2018-08-04T09:05:22.313Z,860.49
2018-08-04T09:06:22.199Z,860.45
2018-08-04T09:07:22.085Z,860.44
2018-08-04T09:08:21.971Z,860.49
2018-08-04T09:09:21.860Z,860.46
2018-08-04T09:10:21.742Z,860.43
2018-08-04T09:11:21.628Z,860.43
2018-08-04T09:12:21.513Z,860.45
2018-08-04T09:13:21.400Z,860.43
2018-08-04T09:14:21.289Z,860.46
2018-08-04T09:15:21.171Z,860.45
2018-08-04T09:16:21.056Z,860.43
2018-08-04T09:17:20.946Z,860.45
2018-08-04T09:18:20.829Z,860.45
2018-08-04T09:19:20.714Z,860.43
2018-08-04T09:20:20.604Z,860.45
2018-08-04T09:21:20.486Z,860.42
2018-08-04T09:22:20.375Z,860.40
2018-08-04T09:23:22.100Z,860.40
2018-08-04T09:24:20.148Z,860.42
2018-08-04T09:25:20.030Z,860.40
2018-08-04T09:26:19.917Z,860.38
2018-08-04T09:27:19.803Z,860.41
2018-08-04T09:28:19.692Z,860.42
2018-08-04T09:29:19.576Z,860.39
2018-08-04T09:30:19.464Z,860.37
2018-08-04T09:31:19.346Z,860.40
2018-08-04T09:32:19.234Z,860.40
2018-08-04T09:33:19.118Z,860.37
2018-08-04T09:34:19.007Z,860.41
2018-08-04T09:35:18.894Z,860.37
2018-08-04T09:36:18.778Z,860.35
2018-08-04T09:37:18.664Z,860.34
2018-08-04T09:38:18.553Z,860.30
2018-08-04T09:39:18.443Z,860.32
2018-08-04T09:40:18.325Z,860.37
2018-08-04T09:41:18.213Z,860.36
2018-08-04T09:42:18.101Z,860.37
2018-08-04T09:43:17.986Z,860.34
2018-08-04T09:44:17.874Z,860.38
2018-08-04T09:45:17.757Z,860.28
2018-08-04T09:46:17.648Z,860.28
2018-08-04T09:47:17.534Z,860.29
2018-08-04T09:48:17.420Z,860.35
2018-08-04T09:49:17.306Z,860.31
2018-08-04T09:50:17.194Z,860.33
2018-08-04T09:51:17.082Z,860.31
2018-08-04T09:52:16.969Z,860.29
2018-08-04T09:53:16.856Z,860.31
2018-08-04T09:54:17.661Z,860.32
2018-08-04T09:55:16.633Z,860.30
2018-08-04T09:56:16.521Z,860.34
2018-08-04T09:57:16.407Z,860.26
2018-08-04T09:58:16.291Z,860.23
2018-08-04T09:59:16.182Z,860.23
2018-08-04T10:00:16.068Z,860.23
2018-08-04T10:01:15.954Z,860.25
2018-08-04T10:02:15.843Z,860.32
2018-08-04T10:03:15.727Z,860.27
2018-08-04T10:04:15.615Z,860.26
2018-08-04T10:05:15.598Z,860.29
2018-08-04T10:06:15.391Z,860.31
2018-08-04T10:07:15.276Z,860.28
2018-08-04T10:08:15.162Z,860.27
2018-08-04T10:09:15.052Z,860.30
2018-08-04T10:10:14.939Z,860.31
2018-08-04T10:11:14.841Z,860.28
2018-08-04T10:12:14.716Z,860.33
2018-08-04T10:13:14.598Z,860.34
2018-08-04T10:14:14.489Z,860.29
2018-08-04T10:15:14.376Z,860.25
2018-08-04T10:16:14.260Z,860.29
2018-08-04T10:17:14.148Z,860.29
2018-08-04T10:18:14.036Z,860.28
2018-08-04T10:19:13.924Z,860.26
2018-08-04T10:20:13.866Z,860.24
2018-08-04T10:21:13.700Z,860.20
2018-08-04T10:22:13.585Z,860.21
2018-08-04T10:23:13.727Z,860.19
2018-08-04T10:24:13.363Z,860.20
2018-08-04T10:25:13.247Z,860.17
2018-08-04T10:26:13.136Z,860.16
2018-08-04T10:27:13.029Z,860.20
2018-08-04T10:28:12.912Z,860.24
2018-08-04T10:29:12.800Z,860.13
2018-08-04T10:30:12.689Z,860.20
2018-08-04T10:31:12.576Z,860.22
2018-08-04T10:32:12.580Z,860.19
2018-08-04T10:33:12.351Z,860.18
2018-08-04T10:34:12.239Z,860.15
2018-08-04T10:35:12.130Z,860.15
2018-08-04T10:36:12.015Z,860.18
2018-08-04T10:37:11.905Z,860.24
2018-08-04T10:38:11.792Z,860.20
2018-08-04T10:39:11.678Z,860.22
2018-08-04T10:40:11.569Z,860.19
2018-08-04T10:41:11.464Z,860.19
2018-08-04T10:42:11.350Z,860.19
2018-08-04T10:43:11.233Z,860.19
2018-08-04T10:44:11.122Z,860.17
2018-08-04T10:45:11.007Z,860.13
2018-08-04T10:46:10.899Z,860.19
2018-08-04T10:47:10.790Z,860.20
2018-08-04T10:48:10.672Z,860.19
2018-08-04T10:49:10.564Z,860.17
2018-08-04T10:50:10.453Z,860.18
2018-08-04T10:51:10.344Z,860.17
2018-08-04T10:52:10.225Z,860.17
2018-08-04T10:53:10.116Z,860.16
2018-08-04T10:54:10.003Z,860.15
2018-08-04T10:55:09.890Z,860.10
2018-08-04T10:56:11.634Z,860.13
2018-08-04T10:57:09.665Z,860.13
2018-08-04T10:58:09.561Z,860.12
2018-08-04T10:59:09.443Z,860.14
2018-08-04T11:00:09.336Z,860.06
2018-08-04T11:01:11.137Z,860.11
2018-08-04T11:02:09.110Z,860.07
2018-08-04T11:03:09.001Z,860.07
2018-08-04T11:04:08.885Z,860.06
2018-08-04T11:05:08.780Z,860.06
2018-08-04T11:06:08.664Z,860.08
2018-08-04T11:07:08.561Z,860.11
2018-08-04T11:08:08.448Z,860.02
2018-08-04T11:09:08.330Z,859.91
2018-08-04T11:10:08.222Z,859.93
2018-08-04T11:11:08.111Z,859.90
2018-08-04T11:12:07.999Z,859.93
2018-08-04T11:13:07.887Z,859.95
2018-08-04T11:14:07.777Z,859.97
2018-08-04T11:15:07.666Z,859.94
2018-08-04T11:16:07.554Z,859.93
2018-08-04T11:17:07.446Z,859.93
2018-08-04T11:18:07.347Z,859.90
2018-08-04T11:19:07.221Z,859.90
2018-08-04T11:20:07.109Z,859.91
2018-08-04T11:21:06.999Z,859.97
2018-08-04T11:22:07.733Z,859.89
2018-08-04T11:23:06.777Z,859.87
2018-08-04T11:24:06.724Z,859.91
2018-08-04T11:25:06.557Z,859.88
2018-08-04T11:26:06.443Z,859.94
2018-08-04T11:27:06.336Z,859.94
2018-08-04T11:28:06.255Z,859.90
2018-08-04T11:29:06.109Z,859.93
2018-08-04T11:30:06.001Z,859.92
2018-08-04T11:31:05.887Z,859.91
2018-08-04T11:32:05.775Z,859.86
2018-08-04T11:33:05.668Z,859.92
2018-08-04T11:34:05.555Z,859.88
2018-08-04T11:35:05.443Z,859.85
2018-08-04T11:36:05.332Z,859.89
2018-08-04T11:37:05.230Z,859.89
2018-08-04T11:38:05.113Z,859.92
2018-08-04T11:39:05.002Z,859.91
2018-08-04T11:40:04.898Z,859.92
2018-08-04T11:41:04.781Z,859.86
2018-08-04T11:42:04.678Z,859.86
2018-08-04T11:43:04.561Z,859.83
2018-08-04T11:44:04.450Z,859.85
2018-08-04T11:45:04.340Z,859.84
2018-08-04T11:46:04.232Z,859.79
2018-08-04T11:47:05.654Z,859.82
2018-08-04T11:48:04.011Z,859.80
2018-08-04T11:49:03.899Z,859.83
2018-08-04T11:50:03.790Z,859.80
2018-08-04T11:51:03.754Z,859.85
2018-08-04T11:52:03.572Z,859.86
2018-08-04T11:53:03.464Z,859.85
2018-08-04T11:54:03.351Z,859.86
2018-08-04T11:55:03.239Z,859.84
2018-08-04T11:56:03.128Z,859.83
2018-08-04T11:57:03.022Z,859.79
2018-08-04T11:58:02.907Z,859.82
2018-08-04T11:59:02.797Z,859.79
2018-08-04T12:00:02.683Z,859.81
2018-08-04T12:01:02.573Z,859.81
2018-08-04T12:02:02.542Z,859.80
2018-08-04T12:03:02.354Z,859.80
2018-08-04T12:04:02.237Z,859.79
2018-08-04T12:05:02.125Z,859.83
2018-08-04T12:06:02.012Z,859.84
2018-08-04T12:07:01.901Z,859.82
2018-08-04T12:08:01.799Z,859.81
2018-08-04T12:09:01.678Z,859.82
2018-08-04T12:10:01.570Z,859.82
2018-08-04T12:11:01.477Z,859.87
2018-08-04T12:12:01.340Z,859.86
2018-08-04T12:13:01.226Z,859.84
2018-08-04T12:14:01.116Z,859.84
2018-08-04T12:15:01.004Z,859.84
2018-08-04T12:16:00.892Z,859.76
2018-08-04T12:17:00.779Z,859.77
2018-08-04T12:18:00.695Z,859.77
2018-08-04T12:19:00.556Z,859.76
2018-08-04T12:20:00.446Z,859.74
2018-08-04T12:21:00.332Z,859.69
2018-08-04T12:22:00.223Z,859.71
2018-08-04T12:23:00.114Z,859.71
2018-08-04T12:24:00.002Z,859.68
2018-08-04T12:24:59.889Z,859.72
2018-08-04T12:25:59.778Z,859.63
2018-08-04T12:26:59.667Z,859.62